createdAt,value
2022-11-25T00:02:53.374Z,91.59
2022-11-25T00:07:54.910Z,91.71
2022-11-25T00:12:56.418Z,91.77
2022-11-25T00:17:57.776Z,91.71
2022-11-25T00:22:59.166Z,91.56
2022-11-25T00:28:00.541Z,91.93
2022-11-25T00:33:01.931Z,91.26
2022-11-25T00:38:03.384Z,91.65
2022-11-25T00:43:25.480Z,91.26
2022-11-25T00:48:26.915Z,91.51
2022-11-25T00:53:31.078Z,90.61
2022-11-25T00:58:32.439Z,89.84
2022-11-25T01:03:34.974Z,89.70
2022-11-25T01:08:37.996Z,89.67
2022-11-25T01:13:39.830Z,89.97
2022-11-25T01:18:41.956Z,90.69
2022-11-25T01:23:43.527Z,91.78
2022-11-25T01:28:49.336Z,91.41
2022-11-25T01:33:55.732Z,92.13
2022-11-25T01:38:59.169Z,91.82
2022-11-25T01:44:03.599Z,91.80
2022-11-25T01:49:10.341Z,91.38
2022-11-25T01:54:16.000Z,91.65
2022-11-25T01:59:18.019Z,91.30
2022-11-25T02:04:22.143Z,91.39
2022-11-25T02:09:23.590Z,91.29
2022-11-25T02:14:26.250Z,91.16
2022-11-25T02:19:49.698Z,91.19
2022-11-25T02:24:57.760Z,91.19
2022-11-25T02:29:59.274Z,90.81
2022-11-25T02:35:00.691Z,91.15
2022-11-25T02:40:02.955Z,91.34
2022-11-25T02:45:05.703Z,91.76
2022-11-25T02:50:07.731Z,91.09
2022-11-25T02:55:09.338Z,91.19
2022-11-25T03:00:11.413Z,91.39
2022-11-25T03:05:14.383Z,91.11
2022-11-25T03:10:15.802Z,90.93
2022-11-25T03:15:18.126Z,90.77
2022-11-25T03:20:20.265Z,91.29
2022-11-25T03:25:22.326Z,90.79
2022-11-25T03:30:27.483Z,90.51
2022-11-25T03:35:32.859Z,90.98
2022-11-25T03:40:34.336Z,90.85
2022-11-25T03:45:35.796Z,90.98
2022-11-25T03:50:42.118Z,91.14
2022-11-25T03:55:44.032Z,90.26
2022-11-25T04:00:45.633Z,90.27
2022-11-25T04:05:47.179Z,90.39
2022-11-25T04:10:51.822Z,90.08
2022-11-25T04:15:57.859Z,90.20
2022-11-25T04:21:00.323Z,90.30
2022-11-25T04:26:02.402Z,90.48
2022-11-25T04:31:14.057Z,90.51
2022-11-25T04:36:17.805Z,90.25
2022-11-25T04:41:19.482Z,89.43
2022-11-25T04:46:34.065Z,89.34
2022-11-25T04:51:35.648Z,89.76
2022-11-25T04:56:40.843Z,89.41
2022-11-25T05:01:42.928Z,88.90
2022-11-25T05:07:10.942Z,88.50
2022-11-25T05:12:19.290Z,88.35
2022-11-25T05:17:23.990Z,88.05
2022-11-25T05:22:29.971Z,88.28
2022-11-25T05:27:31.407Z,87.85
2022-11-25T05:32:37.833Z,88.58
2022-11-25T05:37:43.913Z,88.62
2022-11-25T05:42:45.790Z,88.07
2022-11-25T05:47:47.294Z,88.52
2022-11-25T05:52:53.702Z,87.60
2022-11-25T05:57:55.571Z,88.02
2022-11-25T06:02:57.055Z,87.70
2022-11-25T06:07:58.656Z,87.75
2022-11-25T06:13:01.473Z,87.11
2022-11-25T06:18:03.314Z,87.02
2022-11-25T06:23:07.638Z,87.59
2022-11-25T06:28:13.125Z,87.44
2022-11-25T06:33:18.260Z,88.46
2022-11-25T06:38:21.456Z,88.35
2022-11-25T06:43:22.819Z,88.92
2022-11-25T06:48:24.210Z,88.13
2022-11-25T06:53:26.575Z,88.26
2022-11-25T06:58:35.894Z,87.95
2022-11-25T07:03:38.114Z,87.94
2022-11-25T07:08:40.416Z,87.64
2022-11-25T07:13:41.805Z,88.62
2022-11-25T07:18:43.236Z,88.74
2022-11-25T07:23:46.604Z,88.56
2022-11-25T07:28:49.330Z,88.23
2022-11-25T07:34:02.233Z,88.59
2022-11-25T07:39:07.699Z,88.67
2022-11-25T07:44:12.892Z,89.29
2022-11-25T07:49:27.067Z,89.71
2022-11-25T07:54:28.874Z,89.68
2022-11-25T07:59:30.309Z,89.90
2022-11-25T08:04:31.672Z,89.56
2022-11-25T08:09:33.115Z,89.78
2022-11-25T08:14:35.243Z,89.83
2022-11-25T08:19:37.177Z,90.31
2022-11-25T08:24:38.742Z,90.05
2022-11-25T08:29:40.171Z,89.93
2022-11-25T08:34:42.457Z,89.43
2022-11-25T08:39:53.750Z,89.70
2022-11-25T08:44:56.240Z,89.88
2022-11-25T08:49:57.710Z,90.29
2022-11-25T08:54:59.143Z,90.41
2022-11-25T09:00:00.692Z,90.27
2022-11-25T09:05:02.091Z,90.13
2022-11-25T09:10:04.236Z,90.33
2022-11-25T09:15:06.234Z,90.84
2022-11-25T09:20:07.915Z,90.48
2022-11-25T09:25:09.487Z,90.91
2022-11-25T09:30:11.397Z,90.37
2022-11-25T09:35:12.849Z,90.26
2022-11-25T09:40:56.129Z,91.23
2022-11-25T09:46:35.058Z,90.52
2022-11-25T09:52:19.319Z,90.95
2022-11-25T09:57:39.500Z,90.33
2022-11-25T10:02:50.932Z,90.99
2022-11-25T10:08:12.710Z,91.05
2022-11-25T10:13:25.331Z,90.43
2022-11-25T10:18:55.976Z,90.39
2022-11-25T10:23:57.727Z,91.21
2022-11-25T10:29:14.061Z,90.15
2022-11-25T10:34:29.933Z,90.80
2022-11-25T10:39:34.383Z,90.78
2022-11-25T10:44:38.661Z,91.35
2022-11-25T10:49:46.041Z,90.28
2022-11-25T10:55:12.966Z,90.64
2022-11-25T11:00:34.586Z,90.77
2022-11-25T11:05:47.843Z,89.99
2022-11-25T11:11:22.494Z,89.82
2022-11-25T11:16:36.571Z,89.45
2022-11-25T11:21:41.673Z,89.27
2022-11-25T11:26:43.200Z,89.03
2022-11-25T11:31:48.435Z,88.50
2022-11-25T11:36:49.863Z,87.99
2022-11-25T11:42:08.408Z,86.92
2022-11-25T11:47:37.735Z,86.36
2022-11-25T11:53:00.420Z,86.15
2022-11-25T11:58:01.736Z,87.09
2022-11-25T12:03:10.589Z,86.10
2022-11-25T12:08:23.216Z,86.36
2022-11-25T12:13:37.565Z,86.42
2022-11-25T12:18:43.958Z,85.96
2022-11-25T12:23:56.011Z,86.26
2022-11-25T12:29:09.144Z,85.82
2022-11-25T12:34:52.723Z,86.30
2022-11-25T12:40:13.090Z,86.23
2022-11-25T12:45:23.652Z,86.02
2022-11-25T12:50:53.390Z,85.89
2022-11-25T12:55:59.603Z,86.38
2022-11-25T13:01:39.059Z,85.75
2022-11-25T13:06:59.483Z,85.39
2022-11-25T13:12:20.039Z,85.36
2022-11-25T13:17:23.390Z,85.41
2022-11-25T13:22:29.854Z,83.38
2022-11-25T13:27:32.467Z,82.87
2022-11-25T13:32:40.212Z,83.20
2022-11-25T13:37:41.901Z,84.10
2022-11-25T13:42:44.495Z,84.87
2022-11-25T13:47:49.226Z,84.66
2022-11-25T13:53:06.707Z,84.44
2022-11-25T13:58:10.846Z,85.07
2022-11-25T14:03:18.374Z,85.28
2022-11-25T14:08:39.216Z,84.71
2022-11-25T14:14:06.931Z,85.36
2022-11-25T14:19:51.248Z,85.47
2022-11-25T14:25:00.543Z,85.95
2022-11-25T14:30:07.437Z,85.67
2022-11-25T14:35:14.538Z,85.52
2022-11-25T14:40:42.058Z,85.48
2022-11-25T14:45:43.464Z,85.89
2022-11-25T14:51:15.255Z,86.34
2022-11-25T14:56:27.291Z,85.69
2022-11-25T15:01:33.707Z,86.04
2022-11-25T15:06:37.280Z,86.08
2022-11-25T15:11:38.867Z,86.51
2022-11-25T15:16:43.301Z,86.32
2022-11-25T15:22:14.981Z,85.91
2022-11-25T15:27:21.918Z,85.96
2022-11-25T15:32:32.484Z,86.13
2022-11-25T15:37:33.893Z,86.25
2022-11-25T15:42:35.371Z,86.46
2022-11-25T15:47:36.928Z,86.07
2022-11-25T15:52:40.946Z,86.27
2022-11-25T15:57:42.586Z,85.98
2022-11-25T16:02:44.001Z,85.69
2022-11-25T16:07:51.930Z,86.07
2022-11-25T16:13:25.810Z,86.36
2022-11-25T16:19:02.701Z,86.51
2022-11-25T16:24:30.151Z,86.52
2022-11-25T16:29:31.471Z,87.12
2022-11-25T16:34:32.850Z,86.73
2022-11-25T16:39:34.302Z,87.35
2022-11-25T16:44:37.127Z,86.58
2022-11-25T16:49:39.172Z,87.18
2022-11-25T16:54:41.698Z,86.95
2022-11-25T16:59:45.424Z,87.00
2022-11-25T17:04:47.885Z,87.57
2022-11-25T17:09:49.574Z,88.06
2022-11-25T17:14:51.184Z,87.61
2022-11-25T17:19:53.667Z,87.88
2022-11-25T17:24:57.292Z,87.44
2022-11-25T17:30:01.176Z,87.67
2022-11-25T17:35:02.605Z,87.93
2022-11-25T17:40:04.440Z,87.96
2022-11-25T17:45:18.620Z,88.31
2022-11-25T17:50:25.434Z,88.24
2022-11-25T17:55:27.188Z,87.94
2022-11-25T18:00:28.834Z,88.12
2022-11-25T18:05:30.225Z,87.94
2022-11-25T18:10:31.860Z,88.85
2022-11-25T18:15:34.604Z,88.37
2022-11-25T18:20:35.983Z,88.48
2022-11-25T18:25:39.441Z,87.67
2022-11-25T18:31:19.089Z,88.42
2022-11-25T18:36:52.529Z,88.62
2022-11-25T18:41:58.206Z,88.22
2022-11-25T18:47:38.221Z,88.51
2022-11-25T18:52:39.637Z,88.57
2022-11-25T18:58:08.447Z,88.71
2022-11-25T19:10:48.593Z,89.17
2022-11-25T19:15:50.171Z,89.28
2022-11-25T19:28:12.161Z,90.35
2022-11-25T19:33:36.714Z,89.53
2022-11-25T19:39:15.102Z,90.17
2022-11-25T19:44:16.631Z,90.56
2022-11-25T19:49:19.797Z,89.79
2022-11-25T19:54:21.177Z,89.95
2022-11-25T19:59:22.615Z,90.52
2022-11-25T20:04:24.059Z,90.08
2022-11-25T20:09:25.541Z,90.40
2022-11-25T20:14:26.939Z,90.57
2022-11-25T20:19:28.381Z,90.09
2022-11-25T20:24:30.034Z,90.17
2022-11-25T20:29:31.414Z,90.34
2022-11-25T20:34:37.386Z,90.15
2022-11-25T20:39:44.654Z,89.83
2022-11-25T20:44:46.688Z,89.85
2022-11-25T20:49:48.727Z,89.41
2022-11-25T20:54:50.137Z,90.09
2022-11-25T20:59:51.562Z,89.38
2022-11-25T21:04:53.027Z,89.58
2022-11-25T21:09:54.757Z,89.81
2022-11-25T21:14:56.181Z,90.54
2022-11-25T21:19:57.552Z,90.08
2022-11-25T21:24:59.279Z,90.22
2022-11-25T21:30:00.666Z,90.17
2022-11-25T21:35:03.868Z,90.34
2022-11-25T21:40:06.157Z,90.88
2022-11-25T21:45:15.902Z,90.39
2022-11-25T21:50:18.730Z,90.87
2022-11-25T21:55:20.135Z,91.20
2022-11-25T22:00:24.703Z,91.42
2022-11-25T22:05:26.100Z,91.22
2022-11-25T22:10:27.565Z,92.01
2022-11-25T22:15:29.072Z,91.45
2022-11-25T22:20:33.348Z,92.71
2022-11-25T22:25:34.746Z,92.32
2022-11-25T22:30:36.120Z,92.36
2022-11-25T22:35:37.515Z,92.54
2022-11-25T22:40:39.035Z,92.47
2022-11-25T22:45:40.455Z,93.27
2022-11-25T22:50:43.699Z,93.21
2022-11-25T22:55:45.831Z,93.70
2022-11-25T23:00:47.589Z,93.45
2022-11-25T23:05:51.159Z,93.33
2022-11-25T23:10:53.606Z,93.76
2022-11-25T23:15:59.074Z,94.22
2022-11-25T23:21:00.738Z,93.54
2022-11-25T23:26:02.122Z,93.80
2022-11-25T23:31:04.266Z,93.52
2022-11-25T23:36:12.580Z,93.95
2022-11-25T23:41:16.944Z,93.88
2022-11-25T23:46:22.701Z,94.40
2022-11-25T23:51:26.765Z,94.55
2022-11-25T23:56:28.606Z,95.04
